PWSweather.com
Personal Weather Stations
Station Observations
ANTHEMNP
Anthem North Parkside, Anthem, AZ 85086

Anthem North ParksideAnthem, AZ 85086

Lat: 33.876464, Lon: -112.13861199999997

Elevation: 1930

Station Type: Davis Vantage Vue with Pro 2 console

http://www.azjerry.com/ANPW/wxindex.php

High Low Average
Temperature 86.9°F30.5°C 66.7°F19.3°C 74.3°F23.5°C
Dew Point 39.0°F3.9°C 18.0°F-7.8°C 33.2°F0.7°C
Winds 10.6 mph 17.1 kmh Calm Calm 6.0 mph SE9.7 kmh SE
Wind Gusts 20.0 mph32.2 kmh 1.0 mph1.6 kmh 11.0 mph17.7 kmh
Humidity 35% 12% 24%
Pressure 30.19 in1022.4 mb 30.08 in1018.6 mb -
Precipitation 0.00 in0.0 mm - -
Hour Temp Dew Point Humidity Winds Wind Gusts Pressure Precip Precip Rate Daily Precip Total
12:00 AM 70.1°F21.2°C 37.0°F2.8°C 30% 7.4 mph NNE11.9 kmh NNE 13.0 mph20.9 kmh 30.16 in1021.3 mb 0.00 in0.0 mm 0.00 in0.0 mm 0.00 in0.0 mm
12:10 AM 69.5°F20.8°C 37.0°F2.8°C 30% 7.0 mph N11.3 kmh N 12.0 mph19.3 kmh 30.16 in1021.3 mb 0.00 in0.0 mm 0.00 in0.0 mm 0.00 in0.0 mm
12:20 AM 69.4°F20.8°C 37.0°F2.8°C 30% 7.6 mph N12.2 kmh N 14.0 mph22.5 kmh 30.16 in1021.3 mb 0.00 in0.0 mm 0.00 in0.0 mm 0.00 in0.0 mm
12:30 AM 69.2°F20.7°C 37.0°F2.8°C 31% 8.4 mph N13.5 kmh N 13.0 mph20.9 kmh 30.16 in1021.3 mb 0.00 in0.0 mm 0.00 in0.0 mm 0.00 in0.0 mm
12:40 AM 68.9°F20.5°C 37.0°F2.8°C 31% 8.1 mph N13.0 kmh N 15.0 mph24.1 kmh 30.16 in1021.3 mb 0.00 in0.0 mm 0.00 in0.0 mm 0.00 in0.0 mm
12:50 AM 68.7°F20.4°C 36.0°F2.2°C 30% 8.5 mph NNE13.7 kmh NNE 14.0 mph22.5 kmh 30.16 in1021.3 mb 0.00 in0.0 mm 0.00 in0.0 mm 0.00 in0.0 mm
01:00 AM 68.7°F20.4°C 36.0°F2.2°C 30% 8.3 mph NNE13.4 kmh NNE 14.0 mph22.5 kmh 30.15 in1021.0 mb 0.00 in0.0 mm 0.00 in0.0 mm 0.00 in0.0 mm
01:10 AM 68.5°F20.3°C 36.0°F2.2°C 30% 8.3 mph N13.4 kmh N 15.0 mph24.1 kmh 30.16 in1021.3 mb 0.00 in0.0 mm 0.00 in0.0 mm 0.00 in0.0 mm
01:20 AM 68.8°F20.4°C 36.0°F2.2°C 30% 7.4 mph N11.9 kmh N 14.0 mph22.5 kmh 30.15 in1021.0 mb 0.00 in0.0 mm 0.00 in0.0 mm 0.00 in0.0 mm
01:30 AM 69.0°F20.6°C 36.0°F2.2°C 30% 8.6 mph ENE13.8 kmh ENE 15.0 mph24.1 kmh 30.15 in1021.0 mb 0.00 in0.0 mm 0.00 in0.0 mm 0.00 in0.0 mm
01:40 AM 68.3°F20.2°C 36.0°F2.2°C 30% 8.8 mph NW14.2 kmh NW 15.0 mph24.1 kmh 30.15 in1021.0 mb 0.00 in0.0 mm 0.00 in0.0 mm 0.00 in0.0 mm
01:50 AM 68.0°F20.0°C 36.0°F2.2°C 31% 8.2 mph NNE13.2 kmh NNE 14.0 mph22.5 kmh 30.15 in1021.0 mb 0.00 in0.0 mm 0.00 in0.0 mm 0.00 in0.0 mm
02:00 AM 67.9°F19.9°C 36.0°F2.2°C 31% 8.0 mph NW12.9 kmh NW 16.0 mph25.7 kmh 30.15 in1021.0 mb 0.00 in0.0 mm 0.00 in0.0 mm 0.00 in0.0 mm
02:10 AM 67.8°F19.9°C 36.0°F2.2°C 31% 7.8 mph NE12.6 kmh NE 14.0 mph22.5 kmh 30.15 in1021.0 mb 0.00 in0.0 mm 0.00 in0.0 mm 0.00 in0.0 mm
02:20 AM 67.5°F19.7°C 36.0°F2.2°C 31% 7.3 mph NNE11.7 kmh NNE 13.0 mph20.9 kmh 30.15 in1021.0 mb 0.00 in0.0 mm 0.00 in0.0 mm 0.00 in0.0 mm
02:30 AM 67.1°F19.5°C 36.0°F2.2°C 32% 6.8 mph NE10.9 kmh NE 13.0 mph20.9 kmh 30.14 in1020.7 mb 0.00 in0.0 mm 0.00 in0.0 mm 0.00 in0.0 mm
02:40 AM 66.7°F19.3°C 37.0°F2.8°C 33% 7.2 mph NNE11.6 kmh NNE 13.0 mph20.9 kmh 30.15 in1021.0 mb 0.00 in0.0 mm 0.00 in0.0 mm 0.00 in0.0 mm
02:50 AM 66.9°F19.4°C 37.0°F2.8°C 33% 6.7 mph NE10.8 kmh NE 12.0 mph19.3 kmh 30.14 in1020.7 mb 0.00 in0.0 mm 0.00 in0.0 mm 0.00 in0.0 mm
03:00 AM 67.0°F19.4°C 36.0°F2.2°C 32% 6.9 mph NW11.1 kmh NW 13.0 mph20.9 kmh 30.14 in1020.7 mb 0.00 in0.0 mm 0.00 in0.0 mm 0.00 in0.0 mm
03:10 AM 67.1°F19.5°C 36.0°F2.2°C 32% 7.3 mph NNW11.7 kmh NNW 13.0 mph20.9 kmh 30.14 in1020.7 mb 0.00 in0.0 mm 0.00 in0.0 mm 0.00 in0.0 mm
03:20 AM 66.9°F19.4°C 36.0°F2.2°C 32% 6.1 mph N9.8 kmh N 12.0 mph19.3 kmh 30.15 in1021.0 mb 0.00 in0.0 mm 0.00 in0.0 mm 0.00 in0.0 mm
03:30 AM 67.0°F19.4°C 37.0°F2.8°C 33% 6.0 mph NNE9.7 kmh NNE 11.0 mph17.7 kmh 30.15 in1021.0 mb 0.00 in0.0 mm 0.00 in0.0 mm 0.00 in0.0 mm
03:40 AM 67.1°F19.5°C 37.0°F2.8°C 33% 6.5 mph N10.5 kmh N 12.0 mph19.3 kmh 30.15 in1021.0 mb 0.00 in0.0 mm 0.00 in0.0 mm 0.00 in0.0 mm
03:50 AM 67.5°F19.7°C 37.0°F2.8°C 32% 7.3 mph N11.7 kmh N 12.0 mph19.3 kmh 30.15 in1021.0 mb 0.00 in0.0 mm 0.00 in0.0 mm 0.00 in0.0 mm
04:00 AM 67.6°F19.8°C 37.0°F2.8°C 32% 7.2 mph NNE11.6 kmh NNE 12.0 mph19.3 kmh 30.15 in1021.0 mb 0.00 in0.0 mm 0.00 in0.0 mm 0.00 in0.0 mm
04:10 AM 67.4°F19.7°C 36.0°F2.2°C 32% 6.8 mph N10.9 kmh N 13.0 mph20.9 kmh 30.15 in1021.0 mb 0.00 in0.0 mm 0.00 in0.0 mm 0.00 in0.0 mm
04:20 AM 67.5°F19.7°C 37.0°F2.8°C 32% 7.8 mph NE12.6 kmh NE 15.0 mph24.1 kmh 30.15 in1021.0 mb 0.00 in0.0 mm 0.00 in0.0 mm 0.00 in0.0 mm
04:30 AM 67.6°F19.8°C 37.0°F2.8°C 33% 7.7 mph N12.4 kmh N 14.0 mph22.5 kmh 30.15 in1021.0 mb 0.00 in0.0 mm 0.00 in0.0 mm 0.00 in0.0 mm
04:40 AM 68.0°F20.0°C 38.0°F3.3°C 33% 7.6 mph NW12.2 kmh NW 14.0 mph22.5 kmh 30.15 in1021.0 mb 0.00 in0.0 mm 0.00 in0.0 mm 0.00 in0.0 mm
04:50 AM 67.9°F19.9°C 38.0°F3.3°C 33% 7.0 mph N11.3 kmh N 14.0 mph22.5 kmh 30.15 in1021.0 mb 0.00 in0.0 mm 0.00 in0.0 mm 0.00 in0.0 mm
05:00 AM 67.8°F19.9°C 38.0°F3.3°C 33% 7.3 mph NNE11.7 kmh NNE 14.0 mph22.5 kmh 30.15 in1021.0 mb 0.00 in0.0 mm 0.00 in0.0 mm 0.00 in0.0 mm
05:10 AM 67.8°F19.9°C 38.0°F3.3°C 33% 6.9 mph NNE11.1 kmh NNE 15.0 mph24.1 kmh 30.15 in1021.0 mb 0.00 in0.0 mm 0.00 in0.0 mm 0.00 in0.0 mm
05:20 AM 68.0°F20.0°C 38.0°F3.3°C 33% 7.4 mph NE11.9 kmh NE 13.0 mph20.9 kmh 30.15 in1021.0 mb 0.00 in0.0 mm 0.00 in0.0 mm 0.00 in0.0 mm
05:30 AM 68.0°F20.0°C 38.0°F3.3°C 33% 8.8 mph NW14.2 kmh NW 17.0 mph27.4 kmh 30.15 in1021.0 mb 0.00 in0.0 mm 0.00 in0.0 mm 0.00 in0.0 mm
05:40 AM 68.1°F20.1°C 38.0°F3.3°C 33% 9.5 mph N15.3 kmh N 18.0 mph29.0 kmh 30.15 in1021.0 mb 0.00 in0.0 mm 0.00 in0.0 mm 0.00 in0.0 mm
05:50 AM 68.2°F20.1°C 38.0°F3.3°C 33% 9.2 mph NNW14.8 kmh NNW 17.0 mph27.4 kmh 30.15 in1021.0 mb 0.00 in0.0 mm 0.00 in0.0 mm 0.00 in0.0 mm
06:00 AM 68.0°F20.0°C 38.0°F3.3°C 33% 10.6 mph NNW17.1 kmh NNW 19.0 mph30.6 kmh 30.15 in1021.0 mb 0.00 in0.0 mm 0.00 in0.0 mm 0.00 in0.0 mm
06:10 AM 67.6°F19.8°C 37.0°F2.8°C 33% 9.7 mph NNW15.6 kmh NNW 15.0 mph24.1 kmh 30.15 in1021.0 mb 0.00 in0.0 mm 0.00 in0.0 mm 0.00 in0.0 mm
06:20 AM 67.3°F19.6°C 38.0°F3.3°C 34% 9.2 mph NE14.8 kmh NE 16.0 mph25.7 kmh 30.15 in1021.0 mb 0.00 in0.0 mm 0.00 in0.0 mm 0.00 in0.0 mm
06:30 AM 67.3°F19.6°C 38.0°F3.3°C 34% 8.9 mph NNW14.3 kmh NNW 17.0 mph27.4 kmh 30.16 in1021.3 mb 0.00 in0.0 mm 0.00 in0.0 mm 0.00 in0.0 mm
06:40 AM 67.1°F19.5°C 38.0°F3.3°C 34% 9.1 mph NNW14.6 kmh NNW 15.0 mph24.1 kmh 30.16 in1021.3 mb 0.00 in0.0 mm 0.00 in0.0 mm 0.00 in0.0 mm
06:50 AM 66.9°F19.4°C 38.0°F3.3°C 35% 9.1 mph NNE14.6 kmh NNE 17.0 mph27.4 kmh 30.16 in1021.3 mb 0.00 in0.0 mm 0.00 in0.0 mm 0.00 in0.0 mm
07:00 AM 66.9°F19.4°C 38.0°F3.3°C 35% 9.3 mph NNW15.0 kmh NNW 16.0 mph25.7 kmh 30.16 in1021.3 mb 0.00 in0.0 mm 0.00 in0.0 mm 0.00 in0.0 mm
07:10 AM 66.8°F19.3°C 38.0°F3.3°C 35% 9.3 mph NNE15.0 kmh NNE 16.0 mph25.7 kmh 30.17 in1021.7 mb 0.00 in0.0 mm 0.00 in0.0 mm 0.00 in0.0 mm
07:20 AM 66.9°F19.4°C 38.0°F3.3°C 35% 9.9 mph NNE15.9 kmh NNE 17.0 mph27.4 kmh 30.17 in1021.7 mb 0.00 in0.0 mm 0.00 in0.0 mm 0.00 in0.0 mm
07:30 AM 66.8°F19.3°C 38.0°F3.3°C 35% 9.7 mph NNE15.6 kmh NNE 16.0 mph25.7 kmh 30.16 in1021.3 mb 0.00 in0.0 mm 0.00 in0.0 mm 0.00 in0.0 mm
07:40 AM 67.0°F19.4°C 38.0°F3.3°C 35% 10.0 mph NNW16.1 kmh NNW 17.0 mph27.4 kmh 30.17 in1021.7 mb 0.00 in0.0 mm 0.00 in0.0 mm 0.00 in0.0 mm
07:50 AM 67.1°F19.5°C 38.0°F3.3°C 34% 10.0 mph N16.1 kmh N 17.0 mph27.4 kmh 30.17 in1021.7 mb 0.00 in0.0 mm 0.00 in0.0 mm 0.00 in0.0 mm
08:00 AM 67.5°F19.7°C 37.0°F2.8°C 33% 9.3 mph NNE15.0 kmh NNE 18.0 mph29.0 kmh 30.18 in1022.0 mb 0.00 in0.0 mm 0.00 in0.0 mm 0.00 in0.0 mm
08:10 AM 67.9°F19.9°C 38.0°F3.3°C 33% 10.2 mph NNW16.4 kmh NNW 18.0 mph29.0 kmh 30.18 in1022.0 mb 0.00 in0.0 mm 0.00 in0.0 mm 0.00 in0.0 mm
08:20 AM 68.6°F20.3°C 37.0°F2.8°C 32% 10.5 mph NNW16.9 kmh NNW 18.0 mph29.0 kmh 30.18 in1022.0 mb 0.00 in0.0 mm 0.00 in0.0 mm 0.00 in0.0 mm
08:30 AM 69.2°F20.7°C 37.0°F2.8°C 31% 9.9 mph NW15.9 kmh NW 17.0 mph27.4 kmh 30.18 in1022.0 mb 0.00 in0.0 mm 0.00 in0.0 mm 0.00 in0.0 mm
08:40 AM 69.6°F20.9°C 37.0°F2.8°C 30% 9.5 mph N15.3 kmh N 16.0 mph25.7 kmh 30.18 in1022.0 mb 0.00 in0.0 mm 0.00 in0.0 mm 0.00 in0.0 mm
08:50 AM 70.5°F21.4°C 38.0°F3.3°C 30% 9.9 mph N15.9 kmh N 17.0 mph27.4 kmh 30.18 in1022.0 mb 0.00 in0.0 mm 0.00 in0.0 mm 0.00 in0.0 mm
09:00 AM 71.0°F21.7°C 37.0°F2.8°C 29% 9.7 mph N15.6 kmh N 18.0 mph29.0 kmh 30.18 in1022.0 mb 0.00 in0.0 mm 0.00 in0.0 mm 0.00 in0.0 mm
09:10 AM 71.4°F21.9°C 37.0°F2.8°C 29% 9.1 mph NNE14.6 kmh NNE 17.0 mph27.4 kmh 30.18 in1022.0 mb 0.00 in0.0 mm 0.00 in0.0 mm 0.00 in0.0 mm
09:20 AM 72.0°F22.2°C 38.0°F3.3°C 29% 9.0 mph N14.5 kmh N 17.0 mph27.4 kmh 30.18 in1022.0 mb 0.00 in0.0 mm 0.00 in0.0 mm 0.00 in0.0 mm
09:30 AM 72.7°F22.6°C 38.0°F3.3°C 28% 8.2 mph NNE13.2 kmh NNE 15.0 mph24.1 kmh 30.19 in1022.4 mb 0.00 in0.0 mm 0.00 in0.0 mm 0.00 in0.0 mm
09:40 AM 73.4°F23.0°C 38.0°F3.3°C 28% 7.3 mph NE11.7 kmh NE 14.0 mph22.5 kmh 30.19 in1022.4 mb 0.00 in0.0 mm 0.00 in0.0 mm 0.00 in0.0 mm
09:50 AM 73.9°F23.3°C 39.0°F3.9°C 28% 7.7 mph NE12.4 kmh NE 15.0 mph24.1 kmh 30.19 in1022.4 mb 0.00 in0.0 mm 0.00 in0.0 mm 0.00 in0.0 mm
10:00 AM 74.7°F23.7°C 38.0°F3.3°C 27% 6.3 mph NE10.1 kmh NE 13.0 mph20.9 kmh 30.19 in1022.4 mb 0.00 in0.0 mm 0.00 in0.0 mm 0.00 in0.0 mm
10:10 AM 75.5°F24.2°C 38.0°F3.3°C 26% 6.0 mph NNW9.7 kmh NNW 12.0 mph19.3 kmh 30.19 in1022.4 mb 0.00 in0.0 mm 0.00 in0.0 mm 0.00 in0.0 mm
10:20 AM 76.3°F24.6°C 39.0°F3.9°C 26% 6.0 mph N9.7 kmh N 13.0 mph20.9 kmh 30.19 in1022.4 mb 0.00 in0.0 mm 0.00 in0.0 mm 0.00 in0.0 mm
10:30 AM 76.8°F24.9°C 38.0°F3.3°C 25% 7.1 mph NW11.4 kmh NW 13.0 mph20.9 kmh 30.19 in1022.4 mb 0.00 in0.0 mm 0.00 in0.0 mm 0.00 in0.0 mm
10:40 AM 77.7°F25.4°C 39.0°F3.9°C 25% 5.4 mph N8.7 kmh N 11.0 mph17.7 kmh 30.19 in1022.4 mb 0.00 in0.0 mm 0.00 in0.0 mm 0.00 in0.0 mm
10:50 AM 78.3°F25.7°C 39.0°F3.9°C 24% 5.3 mph NE8.5 kmh NE 10.0 mph16.1 kmh 30.19 in1022.4 mb 0.00 in0.0 mm 0.00 in0.0 mm 0.00 in0.0 mm
11:00 AM 78.9°F26.1°C 39.0°F3.9°C 24% 4.2 mph N6.8 kmh N 8.0 mph12.9 kmh 30.19 in1022.4 mb 0.00 in0.0 mm 0.00 in0.0 mm 0.00 in0.0 mm
11:10 AM 79.5°F26.4°C 39.0°F3.9°C 23% 4.1 mph NNW6.6 kmh NNW 11.0 mph17.7 kmh 30.18 in1022.0 mb 0.00 in0.0 mm 0.00 in0.0 mm 0.00 in0.0 mm
11:20 AM 80.4°F26.9°C 38.0°F3.3°C 22% 3.8 mph NW6.1 kmh NW 9.0 mph14.5 kmh 30.18 in1022.0 mb 0.00 in0.0 mm 0.00 in0.0 mm 0.00 in0.0 mm
11:30 AM 80.8°F27.1°C 39.0°F3.9°C 22% 3.6 mph NE5.8 kmh NE 11.0 mph17.7 kmh 30.17 in1021.7 mb 0.00 in0.0 mm 0.00 in0.0 mm 0.00 in0.0 mm
11:40 AM 81.3°F27.4°C 39.0°F3.9°C 22% 4.2 mph NE6.8 kmh NE 10.0 mph16.1 kmh 30.16 in1021.3 mb 0.00 in0.0 mm 0.00 in0.0 mm 0.00 in0.0 mm
11:50 AM 81.7°F27.6°C 36.0°F2.2°C 19% 3.4 mph N5.5 kmh N 11.0 mph17.7 kmh 30.15 in1021.0 mb 0.00 in0.0 mm 0.00 in0.0 mm 0.00 in0.0 mm
12:00 PM 83.3°F28.5°C 34.0°F1.1°C 17% 2.8 mph NNW4.5 kmh NNW 15.0 mph24.1 kmh 30.15 in1021.0 mb 0.00 in0.0 mm 0.00 in0.0 mm 0.00 in0.0 mm
12:10 PM 83.5°F28.6°C 34.0°F1.1°C 17% 1.8 mph E2.9 kmh E 6.0 mph9.7 kmh 30.15 in1021.0 mb 0.00 in0.0 mm 0.00 in0.0 mm 0.00 in0.0 mm
12:20 PM 84.1°F28.9°C 33.0°F0.6°C 16% 1.8 mph NNE2.9 kmh NNE 6.0 mph9.7 kmh 30.15 in1021.0 mb 0.00 in0.0 mm 0.00 in0.0 mm 0.00 in0.0 mm
12:30 PM 84.3°F29.1°C 33.0°F0.6°C 16% 4.1 mph E6.6 kmh E 11.0 mph17.7 kmh 30.14 in1020.7 mb 0.00 in0.0 mm 0.00 in0.0 mm 0.00 in0.0 mm
12:40 PM 83.9°F28.8°C 35.0°F1.7°C 17% 3.8 mph SSE6.1 kmh SSE 9.0 mph14.5 kmh 30.14 in1020.7 mb 0.00 in0.0 mm 0.00 in0.0 mm 0.00 in0.0 mm
12:50 PM 83.5°F28.6°C 34.0°F1.1°C 17% 2.3 mph SE3.7 kmh SE 6.0 mph9.7 kmh 30.13 in1020.3 mb 0.00 in0.0 mm 0.00 in0.0 mm 0.00 in0.0 mm
01:00 PM 83.3°F28.5°C 38.0°F3.3°C 20% 2.2 mph SE3.5 kmh SE 6.0 mph9.7 kmh 30.13 in1020.3 mb 0.00 in0.0 mm 0.00 in0.0 mm 0.00 in0.0 mm
01:10 PM 83.5°F28.6°C 36.0°F2.2°C 18% 1.7 mph SSE2.7 kmh SSE 7.0 mph11.3 kmh 30.13 in1020.3 mb 0.00 in0.0 mm 0.00 in0.0 mm 0.00 in0.0 mm
01:20 PM 83.8°F28.8°C 35.0°F1.7°C 17% 2.2 mph E3.5 kmh E 6.0 mph9.7 kmh 30.12 in1020.0 mb 0.00 in0.0 mm 0.00 in0.0 mm 0.00 in0.0 mm
01:30 PM 83.7°F28.7°C 33.0°F0.6°C 16% 1.8 mph SE2.9 kmh SE 6.0 mph9.7 kmh 30.12 in1020.0 mb 0.00 in0.0 mm 0.00 in0.0 mm 0.00 in0.0 mm
01:40 PM 83.6°F28.7°C 34.0°F1.1°C 17% 1.9 mph SE3.1 kmh SE 6.0 mph9.7 kmh 30.12 in1020.0 mb 0.00 in0.0 mm 0.00 in0.0 mm 0.00 in0.0 mm
01:50 PM 84.5°F29.2°C 34.0°F1.1°C 16% 1.5 mph SW2.4 kmh SW 4.0 mph6.4 kmh 30.11 in1019.6 mb 0.00 in0.0 mm 0.00 in0.0 mm 0.00 in0.0 mm
02:00 PM 85.4°F29.7°C 33.0°F0.6°C 15% 2.1 mph E3.4 kmh E 7.0 mph11.3 kmh 30.11 in1019.6 mb 0.00 in0.0 mm 0.00 in0.0 mm 0.00 in0.0 mm
02:10 PM 85.9°F29.9°C 33.0°F0.6°C 15% 2.1 mph SSW3.4 kmh SSW 9.0 mph14.5 kmh 30.11 in1019.6 mb 0.00 in0.0 mm 0.00 in0.0 mm 0.00 in0.0 mm
02:20 PM 86.2°F30.1°C 32.0°F0.0°C 14% 3.3 mph SE5.3 kmh SE 8.0 mph12.9 kmh 30.10 in1019.3 mb 0.00 in0.0 mm 0.00 in0.0 mm 0.00 in0.0 mm
02:30 PM 86.5°F30.3°C 35.0°F1.7°C 16% 1.8 mph NE2.9 kmh NE 6.0 mph9.7 kmh 30.10 in1019.3 mb 0.00 in0.0 mm 0.00 in0.0 mm 0.00 in0.0 mm
02:40 PM 86.9°F30.5°C 30.0°F-1.1°C 13% 1.0 mph SE1.6 kmh SE 5.0 mph8.0 kmh 30.09 in1019.0 mb 0.00 in0.0 mm 0.00 in0.0 mm 0.00 in0.0 mm
02:50 PM 85.6°F29.8°C 27.0°F-2.8°C 12% 3.1 mph N5.0 kmh N 8.0 mph12.9 kmh 30.10 in1019.3 mb 0.00 in0.0 mm 0.00 in0.0 mm 0.00 in0.0 mm
03:00 PM 85.7°F29.8°C 29.0°F-1.7°C 13% 3.1 mph N5.0 kmh N 10.0 mph16.1 kmh 30.09 in1019.0 mb 0.00 in0.0 mm 0.00 in0.0 mm 0.00 in0.0 mm
03:10 PM 85.5°F29.7°C 29.0°F-1.7°C 13% 1.4 mph N2.3 kmh N 6.0 mph9.7 kmh 30.09 in1019.0 mb 0.00 in0.0 mm 0.00 in0.0 mm 0.00 in0.0 mm
03:20 PM 85.6°F29.8°C 31.0°F-0.6°C 14% 1.6 mph N2.6 kmh N 6.0 mph9.7 kmh 30.09 in1019.0 mb 0.00 in0.0 mm 0.00 in0.0 mm 0.00 in0.0 mm
03:30 PM 86.7°F30.4°C 28.0°F-2.2°C 12% 2.3 mph NE3.7 kmh NE 9.0 mph14.5 kmh 30.09 in1019.0 mb 0.00 in0.0 mm 0.00 in0.0 mm 0.00 in0.0 mm
03:40 PM 85.5°F29.7°C 29.0°F-1.7°C 13% 1.1 mph ESE1.8 kmh ESE 4.0 mph6.4 kmh 30.09 in1019.0 mb 0.00 in0.0 mm 0.00 in0.0 mm 0.00 in0.0 mm
03:50 PM 85.8°F29.9°C 31.0°F-0.6°C 14% 2.2 mph SE3.5 kmh SE 7.0 mph11.3 kmh 30.08 in1018.6 mb 0.00 in0.0 mm 0.00 in0.0 mm 0.00 in0.0 mm
04:00 PM 85.7°F29.8°C 31.0°F-0.6°C 14% 1.2 mph SE1.9 kmh SE 5.0 mph8.0 kmh 30.09 in1019.0 mb 0.00 in0.0 mm 0.00 in0.0 mm 0.00 in0.0 mm
04:10 PM 85.6°F29.8°C 33.0°F0.6°C 15% 2.2 mph SE3.5 kmh SE 7.0 mph11.3 kmh 30.08 in1018.6 mb 0.00 in0.0 mm 0.00 in0.0 mm 0.00 in0.0 mm
04:20 PM 85.4°F29.7°C 33.0°F0.6°C 15% 2.1 mph SE3.4 kmh SE 6.0 mph9.7 kmh 30.08 in1018.6 mb 0.00 in0.0 mm 0.00 in0.0 mm 0.00 in0.0 mm
04:30 PM 85.0°F29.4°C 32.0°F0.0°C 15% 1.5 mph SE2.4 kmh SE 4.0 mph6.4 kmh 30.08 in1018.6 mb 0.00 in0.0 mm 0.00 in0.0 mm 0.00 in0.0 mm
04:40 PM 84.0°F28.9°C 33.0°F0.6°C 16% 3.4 mph SE5.5 kmh SE 8.0 mph12.9 kmh 30.08 in1018.6 mb 0.00 in0.0 mm 0.00 in0.0 mm 0.00 in0.0 mm
04:50 PM 83.3°F28.5°C 33.0°F0.6°C 16% 2.9 mph SE4.7 kmh SE 7.0 mph11.3 kmh 30.08 in1018.6 mb 0.00 in0.0 mm 0.00 in0.0 mm 0.00 in0.0 mm
05:00 PM 82.7°F28.2°C 32.0°F0.0°C 16% 2.0 mph SE3.2 kmh SE 4.0 mph6.4 kmh 30.08 in1018.6 mb 0.00 in0.0 mm 0.00 in0.0 mm 0.00 in0.0 mm
05:10 PM 82.2°F27.9°C 33.0°F0.6°C 17% 1.3 mph SE2.1 kmh SE 4.0 mph6.4 kmh 30.08 in1018.6 mb 0.00 in0.0 mm 0.00 in0.0 mm 0.00 in0.0 mm
05:20 PM 81.3°F27.4°C 34.0°F1.1°C 18% 0.8 mph SE1.3 kmh SE 2.0 mph3.2 kmh 30.08 in1018.6 mb 0.00 in0.0 mm 0.00 in0.0 mm 0.00 in0.0 mm
05:30 PM 80.4°F26.9°C 33.0°F0.6°C 18% 0.6 mph SE1.0 kmh SE 1.0 mph1.6 kmh 30.08 in1018.6 mb 0.00 in0.0 mm 0.00 in0.0 mm 0.00 in0.0 mm
05:40 PM 79.1°F26.2°C 35.0°F1.7°C 20% Calm Calm 1.0 mph1.6 kmh 30.08 in1018.6 mb 0.00 in0.0 mm 0.00 in0.0 mm 0.00 in0.0 mm
05:50 PM 77.1°F25.1°C 34.0°F1.1°C 21% Calm Calm 1.0 mph1.6 kmh 30.08 in1018.6 mb 0.00 in0.0 mm 0.00 in0.0 mm 0.00 in0.0 mm
06:00 PM 76.1°F24.5°C 33.0°F0.6°C 21% Calm Calm 1.0 mph1.6 kmh 30.08 in1018.6 mb 0.00 in0.0 mm 0.00 in0.0 mm 0.00 in0.0 mm
06:10 PM 75.4°F24.1°C 33.0°F0.6°C 21% Calm Calm 1.0 mph1.6 kmh 30.08 in1018.6 mb 0.00 in0.0 mm 0.00 in0.0 mm 0.00 in0.0 mm
06:20 PM 75.2°F24.0°C 33.0°F0.6°C 21% Calm Calm 1.0 mph1.6 kmh 30.09 in1019.0 mb 0.00 in0.0 mm 0.00 in0.0 mm 0.00 in0.0 mm
06:30 PM 74.7°F23.7°C 32.0°F0.0°C 21% Calm Calm 1.0 mph1.6 kmh 30.09 in1019.0 mb 0.00 in0.0 mm 0.00 in0.0 mm 0.00 in0.0 mm
06:40 PM 74.0°F23.3°C 33.0°F0.6°C 22% Calm Calm 1.0 mph1.6 kmh 30.09 in1019.0 mb 0.00 in0.0 mm 0.00 in0.0 mm 0.00 in0.0 mm
06:50 PM 73.7°F23.2°C 32.0°F0.0°C 22% Calm Calm 1.0 mph1.6 kmh 30.10 in1019.3 mb 0.00 in0.0 mm 0.00 in0.0 mm 0.00 in0.0 mm
07:00 PM 73.9°F23.3°C 33.0°F0.6°C 22% Calm Calm 1.0 mph1.6 kmh 30.10 in1019.3 mb 0.00 in0.0 mm 0.00 in0.0 mm 0.00 in0.0 mm
07:10 PM 74.6°F23.7°C 33.0°F0.6°C 22% Calm Calm 2.0 mph3.2 kmh 30.10 in1019.3 mb 0.00 in0.0 mm 0.00 in0.0 mm 0.00 in0.0 mm
07:20 PM 73.7°F23.2°C 34.0°F1.1°C 23% 0.1 mph N0.2 kmh N 2.0 mph3.2 kmh 30.11 in1019.6 mb 0.00 in0.0 mm 0.00 in0.0 mm 0.00 in0.0 mm
07:30 PM 72.2°F22.3°C 34.0°F1.1°C 25% 0.5 mph N0.8 kmh N 2.0 mph3.2 kmh 30.11 in1019.6 mb 0.00 in0.0 mm 0.00 in0.0 mm 0.00 in0.0 mm
07:40 PM 71.4°F21.9°C 34.0°F1.1°C 25% 1.4 mph NNE2.3 kmh NNE 4.0 mph6.4 kmh 30.11 in1019.6 mb 0.00 in0.0 mm 0.00 in0.0 mm 0.00 in0.0 mm
07:50 PM 72.0°F22.2°C 32.0°F0.0°C 23% 1.4 mph NNE2.3 kmh NNE 4.0 mph6.4 kmh 30.11 in1019.6 mb 0.00 in0.0 mm 0.00 in0.0 mm 0.00 in0.0 mm
08:00 PM 73.7°F23.2°C 26.0°F-3.3°C 17% 3.1 mph N5.0 kmh N 8.0 mph12.9 kmh 30.12 in1020.0 mb 0.00 in0.0 mm 0.00 in0.0 mm 0.00 in0.0 mm
08:10 PM 74.1°F23.4°C 26.0°F-3.3°C 17% 3.0 mph N4.8 kmh N 5.0 mph8.0 kmh 30.12 in1020.0 mb 0.00 in0.0 mm 0.00 in0.0 mm 0.00 in0.0 mm
08:20 PM 74.9°F23.8°C 24.0°F-4.4°C 15% 4.8 mph NE7.7 kmh NE 11.0 mph17.7 kmh 30.12 in1020.0 mb 0.00 in0.0 mm 0.00 in0.0 mm 0.00 in0.0 mm
08:30 PM 73.4°F23.0°C 26.0°F-3.3°C 17% 4.2 mph NNE6.8 kmh NNE 8.0 mph12.9 kmh 30.12 in1020.0 mb 0.00 in0.0 mm 0.00 in0.0 mm 0.00 in0.0 mm
08:40 PM 73.4°F23.0°C 23.0°F-5.0°C 15% 5.6 mph NE9.0 kmh NE 12.0 mph19.3 kmh 30.13 in1020.3 mb 0.00 in0.0 mm 0.00 in0.0 mm 0.00 in0.0 mm
08:50 PM 73.1°F22.8°C 23.0°F-5.0°C 15% 6.2 mph NE10.0 kmh NE 12.0 mph19.3 kmh 30.12 in1020.0 mb 0.00 in0.0 mm 0.00 in0.0 mm 0.00 in0.0 mm
09:00 PM 73.0°F22.8°C 23.0°F-5.0°C 15% 7.2 mph NNE11.6 kmh NNE 14.0 mph22.5 kmh 30.13 in1020.3 mb 0.00 in0.0 mm 0.00 in0.0 mm 0.00 in0.0 mm
09:10 PM 72.5°F22.5°C 22.0°F-5.6°C 15% 6.9 mph NNE11.1 kmh NNE 11.0 mph17.7 kmh 30.13 in1020.3 mb 0.00 in0.0 mm 0.00 in0.0 mm 0.00 in0.0 mm
09:20 PM 71.9°F22.2°C 22.0°F-5.6°C 15% 5.5 mph N8.9 kmh N 11.0 mph17.7 kmh 30.13 in1020.3 mb 0.00 in0.0 mm 0.00 in0.0 mm 0.00 in0.0 mm
09:30 PM 71.9°F22.2°C 22.0°F-5.6°C 15% 5.7 mph NNE9.2 kmh NNE 12.0 mph19.3 kmh 30.13 in1020.3 mb 0.00 in0.0 mm 0.00 in0.0 mm 0.00 in0.0 mm
09:40 PM 72.4°F22.4°C 22.0°F-5.6°C 15% 6.7 mph NNW10.8 kmh NNW 13.0 mph20.9 kmh 30.13 in1020.3 mb 0.00 in0.0 mm 0.00 in0.0 mm 0.00 in0.0 mm
09:50 PM 72.4°F22.4°C 22.0°F-5.6°C 15% 8.1 mph NE13.0 kmh NE 16.0 mph25.7 kmh 30.13 in1020.3 mb 0.00 in0.0 mm 0.00 in0.0 mm 0.00 in0.0 mm
10:00 PM 72.3°F22.4°C 22.0°F-5.6°C 15% 8.1 mph N13.0 kmh N 15.0 mph24.1 kmh 30.13 in1020.3 mb 0.00 in0.0 mm 0.00 in0.0 mm 0.00 in0.0 mm
10:10 PM 72.0°F22.2°C 22.0°F-5.6°C 15% 7.5 mph NE12.1 kmh NE 15.0 mph24.1 kmh 30.13 in1020.3 mb 0.00 in0.0 mm 0.00 in0.0 mm 0.00 in0.0 mm
10:20 PM 72.2°F22.3°C 22.0°F-5.6°C 15% 7.2 mph NNW11.6 kmh NNW 13.0 mph20.9 kmh 30.13 in1020.3 mb 0.00 in0.0 mm 0.00 in0.0 mm 0.00 in0.0 mm
10:30 PM 72.4°F22.4°C 20.0°F-6.7°C 14% 8.1 mph NE13.0 kmh NE 16.0 mph25.7 kmh 30.13 in1020.3 mb 0.00 in0.0 mm 0.00 in0.0 mm 0.00 in0.0 mm
10:40 PM 72.3°F22.4°C 20.0°F-6.7°C 14% 7.6 mph NE12.2 kmh NE 14.0 mph22.5 kmh 30.13 in1020.3 mb 0.00 in0.0 mm 0.00 in0.0 mm 0.00 in0.0 mm
10:50 PM 72.0°F22.2°C 20.0°F-6.7°C 14% 8.0 mph NNE12.9 kmh NNE 16.0 mph25.7 kmh 30.13 in1020.3 mb 0.00 in0.0 mm 0.00 in0.0 mm 0.00 in0.0 mm
11:00 PM 72.1°F22.3°C 20.0°F-6.7°C 14% 9.2 mph N14.8 kmh N 15.0 mph24.1 kmh 30.13 in1020.3 mb 0.00 in0.0 mm 0.00 in0.0 mm 0.00 in0.0 mm
11:10 PM 71.8°F22.1°C 20.0°F-6.7°C 14% 8.0 mph NNE12.9 kmh NNE 15.0 mph24.1 kmh 30.13 in1020.3 mb 0.00 in0.0 mm 0.00 in0.0 mm 0.00 in0.0 mm
11:20 PM 71.5°F21.9°C 20.0°F-6.7°C 14% 7.9 mph N12.7 kmh N 20.0 mph32.2 kmh 30.13 in1020.3 mb 0.00 in0.0 mm 0.00 in0.0 mm 0.00 in0.0 mm
11:30 PM 71.2°F21.8°C 19.0°F-7.2°C 14% 8.0 mph NNE12.9 kmh NNE 14.0 mph22.5 kmh 30.12 in1020.0 mb 0.00 in0.0 mm 0.00 in0.0 mm 0.00 in0.0 mm
11:40 PM 71.5°F21.9°C 18.0°F-7.8°C 13% 8.6 mph NNE13.8 kmh NNE 16.0 mph25.7 kmh 30.12 in1020.0 mb 0.00 in0.0 mm 0.00 in0.0 mm 0.00 in0.0 mm
11:50 PM 71.3°F21.8°C 18.0°F-7.8°C 13% 8.5 mph NNW13.7 kmh NNW 16.0 mph25.7 kmh 30.11 in1019.6 mb 0.00 in0.0 mm 0.00 in0.0 mm 0.00 in0.0 mm